Time;durP1;ratioP1;P1;durP2;ratioP2;P2;SDS_P1;SDS_P2;PMS_P1;PMS_P2;Temp;Humidity;BMP_temperature;BMP_pressure;BME280_temperature;BME280_humidity;BME280_pressure;Samples;Min_cycle;Max_cycle;Signal;HPM_P1;HPM_P2
2022/07/15 00:02:25;;;;;;;4.00;3.33;;;19.30;31.60;;;;;;5085704;28;20462;-75
2022/07/15 00:04:52;;;;;;;3.83;3.53;;;19.30;31.40;;;;;;5087212;28;20454;-76
2022/07/15 00:07:20;;;;;;;5.13;3.80;;;19.30;32.10;;;;;;5078006;28;20423;-74
2022/07/15 00:12:32;;;;;;;5.70;3.80;;;19.20;32.10;;;;;;5074860;28;20443;-74
2022/07/15 00:14:59;;;;;;;4.67;2.87;;;19.20;32.10;;;;;;5074772;28;20541;-75
2022/07/15 00:17:26;;;;;;;3.60;3.27;;;19.10;32.20;;;;;;5073956;28;20448;-75
2022/07/15 00:19:54;;;;;;;3.47;3.17;;;19.10;32.50;;;;;;5074138;28;20445;-76
2022/07/15 00:22:21;;;;;;;5.10;3.67;;;19.10;33.10;;;;;;5074022;28;20427;-73
2022/07/15 00:24:49;;;;;;;5.60;3.57;;;19.10;33.00;;;;;;5074079;28;21013;-74
2022/07/15 00:27:16;;;;;;;3.53;2.87;;;19.00;33.20;;;;;;5074848;28;20505;-75
2022/07/15 00:29:42;;;;;;;5.33;3.20;;;19.00;33.30;;;;;;5074740;28;20541;-75
2022/07/15 00:32:09;;;;;;;4.50;3.77;;;18.80;34.00;;;;;;5084889;28;20478;-75
2022/07/15 00:34:36;;;;;;;3.33;3.03;;;18.80;34.00;;;;;;5096656;28;20469;-73
2022/07/15 00:37:03;;;;;;;3.77;3.13;;;18.70;34.40;;;;;;5097426;28;20442;-74
2022/07/15 00:39:30;;;;;;;8.13;4.30;;;18.70;35.10;;;;;;5098667;28;20418;-75
2022/07/15 00:41:58;;;;;;;4.23;3.40;;;18.70;36.30;;;;;;5097849;28;20452;-75
2022/07/15 00:44:25;;;;;;;5.67;3.20;;;18.50;35.90;;;;;;5098133;28;20472;-74
2022/07/15 00:46:53;;;;;;;3.63;3.30;;;18.50;36.30;;;;;;5085124;28;20515;-73
2022/07/15 00:49:20;;;;;;;5.70;3.33;;;18.40;37.30;;;;;;5075849;28;20427;-74
2022/07/15 00:51:50;;;;;;;4.33;3.70;;;18.40;37.30;;;;;;5081676;28;20484;-76
2022/07/15 00:54:23;;;;;;;6.87;3.70;;;18.40;37.30;;;;;;5087918;28;20504;-74
2022/07/15 00:56:56;;;;;;;3.27;3.00;;;18.30;37.20;;;;;;5083307;28;20423;-74
2022/07/15 00:59:34;;;;;;;5.67;3.43;;;18.30;37.20;;;;;;5082662;28;20484;-76
2022/07/15 01:02:02;;;;;;;7.90;3.87;;;18.30;37.20;;;;;;5078954;28;20842;-76
2022/07/15 01:04:29;;;;;;;5.60;3.60;;;18.30;37.20;;;;;;5076009;28;20451;-74
2022/07/15 01:06:56;;;;;;;3.50;3.27;;;18.20;37.10;;;;;;5076210;28;20457;-75
2022/07/15 01:09:23;;;;;;;6.03;3.70;;;18.20;37.10;;;;;;5080935;28;20437;-76
2022/07/15 01:11:50;;;;;;;3.40;3.07;;;18.20;37.10;;;;;;5081046;28;20422;-75
2022/07/15 01:14:17;;;;;;;3.70;3.40;;;18.20;37.10;;;;;;5073057;28;20473;-75
2022/07/15 01:16:45;;;;;;;5.10;4.50;;;18.20;37.10;;;;;;5073446;28;20447;-76
2022/07/15 01:19:12;;;;;;;3.67;3.30;;;18.10;38.30;;;;;;5072812;28;20958;-74
2022/07/15 01:21:40;;;;;;;6.00;3.90;;;18.00;38.60;;;;;;5072450;28;20455;-75
2022/07/15 01:24:07;;;;;;;5.23;4.50;;;17.90;39.10;;;;;;5072880;28;20986;-74
2022/07/15 01:26:34;;;;;;;5.47;4.10;;;17.80;39.70;;;;;;5071949;28;20473;-74
2022/07/15 01:29:01;;;;;;;4.87;4.37;;;17.80;40.60;;;;;;5072824;28;20433;-75
2022/07/15 01:31:28;;;;;;;5.47;4.10;;;17.70;40.90;;;;;;5071748;28;20521;-75
2022/07/15 01:33:55;;;;;;;4.30;3.90;;;17.60;41.00;;;;;;5072169;28;20478;-76
2022/07/15 01:36:22;;;;;;;4.50;4.10;;;17.60;40.80;;;;;;5072865;28;20452;-75
2022/07/15 01:38:50;;;;;;;5.50;4.90;;;17.60;41.40;;;;;;5073073;28;20415;-76
2022/07/15 01:41:17;;;;;;;5.93;4.40;;;17.50;42.00;;;;;;5072891;28;20547;-74
2022/07/15 01:43:44;;;;;;;4.80;4.30;;;17.50;42.70;;;;;;5073100;28;20482;-74
2022/07/15 01:46:11;;;;;;;5.70;4.07;;;17.40;42.90;;;;;;5072254;28;20853;-75
2022/07/15 01:51:22;;;;;;;6.60;4.27;;;17.30;43.80;;;;;;5072408;28;20454;-75
2022/07/15 01:53:50;;;;;;;4.50;4.00;;;17.30;44.30;;;;;;5074245;28;20462;-76
2022/07/15 01:56:17;;;;;;;6.90;4.40;;;17.20;44.80;;;;;;5074093;28;20521;-75
2022/07/15 01:58:44;;;;;;;4.77;3.83;;;17.10;44.80;;;;;;5073820;28;20459;-75
2022/07/15 02:01:11;;;;;;;4.93;4.43;;;17.10;45.20;;;;;;5073338;28;20439;-75
2022/07/15 02:03:37;;;;;;;5.10;4.60;;;17.00;45.60;;;;;;5073034;28;20443;-74
2022/07/15 02:06:05;;;;;;;4.80;4.30;;;17.00;45.80;;;;;;5074560;28;20778;-76
2022/07/15 02:08:32;;;;;;;5.33;4.50;;;17.00;46.00;;;;;;5073346;28;20543;-75
2022/07/15 02:11:00;;;;;;;4.20;3.90;;;17.00;46.10;;;;;;5072489;28;20737;-76
2022/07/15 02:13:27;;;;;;;4.43;4.00;;;16.90;45.90;;;;;;5072387;28;21279;-76
2022/07/15 02:15:54;;;;;;;5.33;4.00;;;16.80;45.80;;;;;;5072137;28;20941;-75
2022/07/15 02:18:21;;;;;;;4.40;4.00;;;16.80;45.80;;;;;;5071742;28;20510;-75
2022/07/15 02:20:48;;;;;;;5.80;4.00;;;16.70;45.80;;;;;;5071718;28;20459;-75
2022/07/15 02:23:15;;;;;;;6.13;4.03;;;16.70;45.80;;;;;;5072202;28;21014;-74
2022/07/15 02:25:42;;;;;;;4.37;3.63;;;16.70;46.70;;;;;;5072734;28;20438;-76
2022/07/15 02:28:10;;;;;;;4.30;3.90;;;16.60;46.90;;;;;;5072632;28;20440;-75
2022/07/15 02:30:40;;;;;;;5.07;3.57;;;16.60;47.30;;;;;;5072423;28;20870;-76
2022/07/15 02:33:08;;;;;;;4.77;3.60;;;16.60;46.50;;;;;;5072153;28;20459;-76
2022/07/15 02:35:35;;;;;;;5.50;3.60;;;16.50;47.20;;;;;;5073731;28;20423;-75
2022/07/15 02:38:02;;;;;;;4.83;4.33;;;16.40;47.60;;;;;;5072968;28;20787;-74
2022/07/15 02:40:30;;;;;;;4.80;3.40;;;16.40;48.00;;;;;;5077443;28;20790;-76
2022/07/15 02:43:00;;;;;;;5.53;4.50;;;16.30;48.50;;;;;;5077945;28;20434;-74
2022/07/15 02:45:30;;;;;;;5.30;4.00;;;16.20;49.00;;;;;;5076349;28;20459;-76
2022/07/15 02:47:57;;;;;;;6.53;3.70;;;16.10;49.10;;;;;;5076518;28;20491;-77
2022/07/15 02:50:24;;;;;;;5.80;4.27;;;16.10;49.00;;;;;;5076014;28;20487;-77
2022/07/15 02:52:51;;;;;;;4.60;3.47;;;16.10;48.90;;;;;;5076202;28;20422;-75
2022/07/15 02:55:19;;;;;;;6.00;3.33;;;16.20;48.60;;;;;;5083588;28;20566;-76
2022/07/15 02:57:46;;;;;;;10.07;3.73;;;16.30;48.10;;;;;;5076294;28;20429;-76
2022/07/15 03:00:17;;;;;;;6.40;3.63;;;16.30;47.80;;;;;;5076082;28;20535;-75
2022/07/15 03:02:45;;;;;;;4.43;3.47;;;16.20;48.00;;;;;;5076391;28;20497;-76
2022/07/15 03:05:13;;;;;;;4.23;3.87;;;16.10;48.00;;;;;;5076158;28;20450;-76
2022/07/15 03:07:40;;;;;;;4.37;3.93;;;16.10;48.20;;;;;;5075573;28;20487;-75
2022/07/15 03:10:10;;;;;;;5.00;4.10;;;16.10;48.50;;;;;;5075831;28;20938;-74
2022/07/15 03:12:37;;;;;;;6.60;3.83;;;16.10;48.40;;;;;;5076362;28;20492;-75
2022/07/15 03:15:06;;;;;;;4.50;4.13;;;16.10;48.30;;;;;;5076216;28;20439;-74
2022/07/15 03:17:33;;;;;;;4.37;3.97;;;16.10;48.60;;;;;;5078841;28;20444;-76
2022/07/15 03:20:01;;;;;;;3.90;3.60;;;16.10;49.10;;;;;;5079213;28;20973;-76
2022/07/15 03:22:29;;;;;;;4.93;4.17;;;16.00;49.60;;;;;;5077492;28;20528;-74
2022/07/15 03:24:56;;;;;;;5.47;4.40;;;15.90;50.60;;;;;;5076009;28;20579;-76
2022/07/15 03:27:23;;;;;;;6.88;5.78;;;15.80;51.20;;;;;;5077650;28;20484;-77
2022/07/15 03:29:50;;;;;;;5.37;4.23;;;15.80;51.50;;;;;;5078244;28;20312;-77
2022/07/15 03:32:19;;;;;;;6.10;4.20;;;15.90;51.60;;;;;;5078728;28;21061;-75
2022/07/15 03:34:46;;;;;;;5.83;4.47;;;15.80;51.30;;;;;;5076502;28;20461;-76
2022/07/15 03:37:14;;;;;;;5.03;3.87;;;15.80;51.70;;;;;;5075635;28;20884;-77
2022/07/15 03:39:41;;;;;;;5.77;4.10;;;15.70;52.80;;;;;;5079149;28;20460;-76
2022/07/15 03:42:08;;;;;;;4.50;4.10;;;15.60;52.70;;;;;;5077839;28;20445;-76
2022/07/15 03:44:35;;;;;;;8.93;4.00;;;15.60;52.40;;;;;;5076245;28;20446;-75
2022/07/15 03:47:02;;;;;;;6.27;4.17;;;15.60;52.30;;;;;;5075522;28;20464;-76
2022/07/15 03:49:29;;;;;;;4.60;4.13;;;15.60;52.10;;;;;;5075141;28;20440;-75
2022/07/15 03:51:55;;;;;;;6.10;4.43;;;15.60;52.00;;;;;;5073962;28;20434;-77
2022/07/15 03:54:24;;;;;;;6.83;4.97;;;15.60;52.10;;;;;;5076876;28;20607;-76
2022/07/15 03:56:51;;;;;;;5.93;4.43;;;15.70;52.60;;;;;;5078565;28;20987;-75
2022/07/15 03:59:20;;;;;;;6.40;5.73;;;15.70;53.60;;;;;;5078843;28;20419;-76
2022/07/15 04:01:48;;;;;;;5.47;4.13;;;15.70;54.60;;;;;;5079993;28;20498;-76
2022/07/15 04:04:16;;;;;;;7.53;5.40;;;15.70;54.60;;;;;;5084808;28;20912;-76
2022/07/15 04:06:42;;;;;;;5.90;5.30;;;15.70;54.90;;;;;;5090201;28;20567;-77
2022/07/15 04:09:10;;;;;;;4.93;4.40;;;15.60;55.30;;;;;;5087850;28;20450;-76
2022/07/15 04:11:41;;;;;;;6.83;5.00;;;15.60;55.40;;;;;;5091488;28;20430;-77
2022/07/15 04:14:09;;;;;;;9.03;4.80;;;15.60;55.50;;;;;;5084965;28;20480;-75
2022/07/15 04:16:35;;;;;;;6.97;5.13;;;15.60;55.50;;;;;;5084140;28;20422;-77
2022/07/15 04:19:02;;;;;;;8.83;4.60;;;15.70;55.70;;;;;;5084076;28;20273;-76
2022/07/15 04:21:29;;;;;;;5.83;4.97;;;15.80;54.90;;;;;;5078347;28;20415;-76
2022/07/15 04:23:56;;;;;;;5.10;4.40;;;15.80;54.70;;;;;;5079344;28;20529;-76
2022/07/15 04:26:23;;;;;;;5.30;4.80;;;15.80;54.70;;;;;;5086375;28;20429;-77
2022/07/15 04:28:51;;;;;;;4.67;4.17;;;15.90;54.70;;;;;;5085721;28;20540;-77
2022/07/15 04:31:18;;;;;;;5.27;4.77;;;15.90;54.70;;;;;;5083097;28;20804;-75
2022/07/15 04:33:45;;;;;;;4.87;4.30;;;15.90;54.70;;;;;;5095866;28;20479;-74
2022/07/15 04:36:12;;;;;;;4.83;4.33;;;16.00;53.80;;;;;;5094247;28;20443;-74
2022/07/15 04:38:39;;;;;;;6.70;4.63;;;16.10;53.20;;;;;;5094750;28;20429;-76
2022/07/15 04:41:06;;;;;;;6.60;4.77;;;16.10;53.20;;;;;;5094915;28;20426;-77
2022/07/15 04:43:33;;;;;;;5.27;4.63;;;16.10;53.50;;;;;;5094688;28;20840;-77
2022/07/15 04:46:01;;;;;;;4.70;4.30;;;16.20;53.10;;;;;;5094120;28;20440;-77
2022/07/15 04:51:13;;;;;;;5.10;4.70;;;16.40;52.60;;;;;;5100735;28;20423;-77
2022/07/15 04:53:40;;;;;;;5.60;4.70;;;16.50;51.50;;;;;;5111927;28;20538;-76
2022/07/15 04:56:07;;;;;;;5.47;4.97;;;16.50;51.50;;;;;;5117762;28;20499;-79
2022/07/15 04:58:34;;;;;;;6.70;4.70;;;16.40;52.20;;;;;;5117793;28;20495;-76
2022/07/15 05:01:02;;;;;;;6.33;5.00;;;16.40;51.70;;;;;;5107540;28;20845;-76
2022/07/15 05:03:29;;;;;;;8.03;4.43;;;16.60;51.60;;;;;;5093988;28;20450;-76
2022/07/15 05:05:56;;;;;;;4.90;4.00;;;17.00;49.70;;;;;;5093787;28;20554;-78
2022/07/15 05:08:23;;;;;;;6.83;4.40;;;17.50;47.30;;;;;;5094517;28;20483;-77
2022/07/15 05:10:49;;;;;;;5.80;4.90;;;17.60;46.60;;;;;;5093673;28;20433;-76
2022/07/15 05:13:16;;;;;;;7.10;4.50;;;17.80;45.80;;;;;;5093948;28;20987;-77
2022/07/15 05:15:43;;;;;;;8.10;4.30;;;18.00;45.50;;;;;;5093800;28;20449;-75
2022/07/15 05:18:11;;;;;;;7.27;3.80;;;18.70;44.00;;;;;;5093491;28;20436;-76
2022/07/15 05:20:38;;;;;;;5.93;4.00;;;19.70;39.50;;;;;;5095961;28;20505;-77
2022/07/15 05:23:05;;;;;;;4.53;4.13;;;19.80;38.60;;;;;;5095190;28;20977;-77
2022/07/15 05:25:32;;;;;;;6.30;4.30;;;19.90;38.80;;;;;;5094430;28;20983;-76
2022/07/15 05:27:59;;;;;;;5.47;4.27;;;19.60;38.40;;;;;;5096190;28;20983;-77
2022/07/15 05:30:26;;;;;;;4.87;4.07;;;19.10;39.00;;;;;;5103725;28;20447;-77
2022/07/15 05:32:52;;;;;;;4.10;3.43;;;19.50;38.30;;;;;;5101719;28;20449;-76
2022/07/15 05:35:21;;;;;;;5.67;3.53;;;20.00;38.10;;;;;;5100621;28;20538;-77
2022/07/15 05:37:48;;;;;;;5.73;4.43;;;20.50;36.40;;;;;;5108211;28;20470;-77
2022/07/15 05:40:15;;;;;;;5.77;4.30;;;20.70;35.80;;;;;;5110880;28;20479;-75
2022/07/15 05:42:42;;;;;;;5.83;4.60;;;20.40;36.30;;;;;;5111822;28;20504;-77
2022/07/15 05:45:10;;;;;;;6.00;3.80;;;20.80;34.40;;;;;;5113268;28;21002;-76
2022/07/15 05:47:37;;;;;;;5.93;3.80;;;21.20;34.20;;;;;;5111437;28;20448;-77
2022/07/15 05:50:06;;;;;;;6.73;4.53;;;21.50;33.00;;;;;;5112385;28;20489;-76
2022/07/15 05:52:34;;;;;;;14.83;3.87;;;20.70;34.00;;;;;;5110337;28;20485;-78
2022/07/15 05:55:02;;;;;;;5.33;3.70;;;21.30;33.10;;;;;;5109635;28;20494;-76
2022/07/15 05:57:28;;;;;;;4.73;3.73;;;21.70;30.30;;;;;;5106378;28;20508;-75
2022/07/15 05:59:55;;;;;;;13.73;4.10;;;21.70;31.60;;;;;;5107636;28;20418;-75
2022/07/15 06:02:22;;;;;;;4.10;3.00;;;21.30;32.40;;;;;;5111506;28;20459;-75
2022/07/15 06:04:49;;;;;;;4.63;3.20;;;20.80;32.90;;;;;;5107726;28;20456;-75
2022/07/15 06:07:16;;;;;;;5.53;2.83;;;21.10;32.30;;;;;;5107888;28;20554;-77
2022/07/15 06:09:46;;;;;;;7.00;3.00;;;21.50;31.60;;;;;;5107764;28;20427;-76
2022/07/15 06:12:13;;;;;;;9.53;3.50;;;22.20;30.50;;;;;;5109565;28;20465;-75
2022/07/15 06:14:40;;;;;;;6.23;3.60;;;22.20;31.30;;;;;;5109686;28;20506;-76
2022/07/15 06:17:07;;;;;;;3.63;2.57;;;21.40;30.00;;;;;;5115024;28;20450;-76
2022/07/15 06:19:33;;;;;;;5.00;3.10;;;21.30;29.80;;;;;;5116531;28;20477;-76
2022/07/15 06:22:00;;;;;;;5.43;2.80;;;21.30;29.80;;;;;;5114933;28;20522;-76
2022/07/15 06:24:27;;;;;;;8.73;2.80;;;21.90;30.30;;;;;;5117527;28;20434;-77
2022/07/15 06:26:55;;;;;;;5.07;2.60;;;22.40;28.30;;;;;;5117057;28;20453;-76
2022/07/15 06:29:22;;;;;;;4.67;2.40;;;22.50;27.90;;;;;;5116471;28;20443;-77
2022/07/15 06:31:49;;;;;;;7.13;2.70;;;22.40;27.90;;;;;;5118327;28;20476;-77
2022/07/15 06:34:16;;;;;;;4.00;2.70;;;22.60;27.70;;;;;;5117212;28;20471;-77
2022/07/15 06:36:43;;;;;;;4.10;2.80;;;23.20;27.00;;;;;;5115769;28;20497;-77
2022/07/15 06:39:10;;;;;;;4.87;2.97;;;23.30;27.10;;;;;;5115323;28;20439;-77
2022/07/15 06:41:38;;;;;;;3.13;2.80;;;23.70;26.60;;;;;;5115686;28;20538;-76
2022/07/15 06:44:06;;;;;;;3.70;2.50;;;23.60;26.50;;;;;;5101810;28;20518;-75
2022/07/15 06:46:33;;;;;;;6.50;2.93;;;23.60;26.70;;;;;;5092734;28;20541;-76
2022/07/15 06:49:00;;;;;;;7.73;3.30;;;23.80;26.30;;;;;;5084390;28;20533;-75
2022/07/15 06:51:27;;;;;;;3.00;2.70;;;23.70;26.40;;;;;;5094713;28;20436;-76
2022/07/15 06:53:54;;;;;;;5.33;2.80;;;23.60;26.50;;;;;;5096674;28;20558;-76
2022/07/15 06:56:21;;;;;;;3.43;2.23;;;23.50;26.20;;;;;;5087260;28;20433;-75
2022/07/15 06:58:48;;;;;;;4.50;2.80;;;23.00;27.00;;;;;;5096844;28;20804;-74
2022/07/15 07:01:23;;;;;;;3.40;2.63;;;23.20;27.10;;;;;;5084075;28;20455;-77
2022/07/15 07:03:59;;;;;;;6.53;2.77;;;23.20;27.10;;;;;;5086765;28;20529;-77
2022/07/15 07:06:35;;;;;;;5.57;2.70;;;22.50;27.60;;;;;;5085282;28;20456;-75
2022/07/15 07:09:08;;;;;;;4.43;2.40;;;22.40;28.00;;;;;;5088568;28;20442;-76
2022/07/15 07:11:42;;;;;;;3.40;2.77;;;21.80;28.70;;;;;;5086254;28;20457;-78
2022/07/15 07:14:12;;;;;;;3.73;2.47;;;21.80;28.60;;;;;;5087393;28;20480;-77
2022/07/15 07:16:40;;;;;;;4.90;2.70;;;21.90;27.70;;;;;;5094513;28;20489;-77
2022/07/15 07:19:07;;;;;;;3.20;2.40;;;21.40;29.70;;;;;;5094279;28;20508;-78
2022/07/15 07:21:35;;;;;;;4.90;2.67;;;21.40;29.90;;;;;;5092751;28;20444;-78
2022/07/15 07:24:01;;;;;;;5.90;2.60;;;21.30;29.50;;;;;;5094033;28;20471;-75
2022/07/15 07:26:29;;;;;;;3.03;2.37;;;21.50;29.40;;;;;;5096424;28;20495;-74
2022/07/15 07:28:56;;;;;;;9.13;2.60;;;21.50;29.10;;;;;;5089700;28;20481;-75
2022/07/15 07:31:25;;;;;;;6.53;2.80;;;21.40;28.70;;;;;;5081513;28;20502;-77
2022/07/15 07:33:55;;;;;;;9.10;2.50;;;21.30;28.50;;;;;;5083578;28;20480;-77
2022/07/15 07:36:22;;;;;;;5.47;2.60;;;21.00;29.20;;;;;;5094352;28;20512;-78
2022/07/15 07:38:49;;;;;;;3.20;1.90;;;21.30;29.60;;;;;;5089060;28;20435;-78
2022/07/15 07:41:17;;;;;;;2.67;2.20;;;21.50;28.00;;;;;;5113990;28;20440;-76
2022/07/15 07:43:44;;;;;;;2.97;2.63;;;21.40;27.50;;;;;;5112138;28;20472;-77
2022/07/15 07:46:16;;;;;;;2.90;2.20;;;21.50;27.00;;;;;;5096702;28;20464;-77
2022/07/15 07:48:46;;;;;;;4.37;2.00;;;21.50;27.10;;;;;;5083734;28;20488;-75
2022/07/15 07:51:16;;;;;;;3.27;1.90;;;21.40;26.90;;;;;;5087400;28;20924;-75
2022/07/15 07:53:43;;;;;;;3.80;1.87;;;21.60;26.00;;;;;;5092102;28;20570;-75
2022/07/15 07:56:10;;;;;;;4.57;1.83;;;21.60;25.70;;;;;;5097701;28;20437;-75
2022/07/15 07:58:37;;;;;;;3.40;1.83;;;21.80;26.00;;;;;;5085166;28;20440;-75
2022/07/15 08:01:04;;;;;;;2.47;2.20;;;21.90;25.30;;;;;;5091973;28;20429;-76
2022/07/15 08:03:31;;;;;;;3.80;2.00;;;21.80;25.40;;;;;;5076022;28;20490;-78
2022/07/15 08:05:59;;;;;;;4.00;1.80;;;21.90;25.50;;;;;;5075157;28;21004;-76
2022/07/15 08:08:27;;;;;;;5.30;2.10;;;21.90;25.30;;;;;;5073693;28;20827;-74
2022/07/15 08:10:55;;;;;;;2.17;1.73;;;22.10;25.40;;;;;;5085742;28;20514;-76
2022/07/15 08:13:24;;;;;;;2.60;1.90;;;22.00;25.00;;;;;;5074799;28;20550;-76
2022/07/15 08:15:53;;;;;;;2.50;1.63;;;22.10;24.70;;;;;;5077761;28;20436;-77
2022/07/15 08:18:21;;;;;;;2.30;1.80;;;22.10;24.80;;;;;;5078453;28;20510;-77
2022/07/15 08:20:48;;;;;;;3.30;2.07;;;22.30;24.90;;;;;;5074788;28;20472;-76
2022/07/15 08:23:20;;;;;;;6.27;1.73;;;22.40;23.90;;;;;;5063653;28;20455;-75
2022/07/15 08:25:49;;;;;;;3.13;1.93;;;22.50;24.10;;;;;;5059751;28;20953;-75
2022/07/15 08:28:17;;;;;;;3.60;1.73;;;22.70;23.90;;;;;;5076071;28;20857;-77
2022/07/15 08:30:45;;;;;;;4.60;1.77;;;22.50;24.20;;;;;;5078765;28;20508;-77
2022/07/15 08:33:18;;;;;;;3.90;1.67;;;22.60;24.00;;;;;;5077518;28;20453;-74
2022/07/15 08:35:45;;;;;;;4.87;2.43;;;22.70;22.60;;;;;;5076049;28;20440;-76
2022/07/15 08:38:13;;;;;;;1.70;1.60;;;22.90;22.80;;;;;;5074729;28;20499;-76
2022/07/15 08:40:45;;;;;;;2.27;1.80;;;23.00;22.80;;;;;;5074362;28;20480;-76
2022/07/15 08:43:14;;;;;;;3.37;1.70;;;22.80;22.70;;;;;;5076081;28;20439;-75
2022/07/15 08:45:43;;;;;;;2.47;1.70;;;22.70;22.60;;;;;;5074911;28;21194;-73
2022/07/15 08:48:11;;;;;;;2.73;1.60;;;22.80;22.70;;;;;;5076838;28;20513;-74
2022/07/15 08:50:39;;;;;;;2.97;1.60;;;23.00;21.10;;;;;;5074243;28;20459;-75
2022/07/15 08:53:06;;;;;;;4.80;2.20;;;23.00;21.70;;;;;;5074867;28;20440;-75
2022/07/15 08:55:33;;;;;;;6.13;1.60;;;22.90;21.30;;;;;;5074742;28;20847;-74
2022/07/15 08:58:00;;;;;;;2.07;1.73;;;23.20;21.80;;;;;;5077998;28;20428;-74
2022/07/15 09:00:29;;;;;;;4.53;1.87;;;23.20;21.40;;;;;;5080722;28;20979;-75
2022/07/15 09:02:58;;;;;;;2.50;1.97;;;23.40;22.30;;;;;;5074543;28;20434;-77
2022/07/15 09:05:28;;;;;;;5.20;2.10;;;23.40;23.10;;;;;;5079578;28;20466;-78
2022/07/15 09:07:57;;;;;;;6.03;2.10;;;23.20;22.70;;;;;;5083802;28;20418;-79
2022/07/15 09:10:27;;;;;;;5.23;2.00;;;23.30;23.00;;;;;;5090979;28;20522;-78
2022/07/15 09:12:54;;;;;;;3.10;1.80;;;23.40;23.10;;;;;;5090310;28;20431;-77
2022/07/15 09:15:33;;;;;;;4.30;1.47;;;23.40;23.70;;;;;;5090424;28;20932;-77
2022/07/15 09:18:22;;;;;;;2.33;2.13;;;23.70;24.00;;;;;;5093103;28;20452;-74
2022/07/15 09:20:50;;;;;;;5.57;1.97;;;23.60;22.20;;;;;;5087196;28;20514;-75
2022/07/15 09:23:29;;;;;;;2.40;1.60;;;23.80;21.30;;;;;;5091861;28;20526;-75
2022/07/15 09:25:58;;;;;;;6.10;2.13;;;23.80;21.30;;;;;;5092418;28;20433;-76
2022/07/15 09:28:38;;;;;;;4.67;2.00;;;23.60;22.10;;;;;;5089929;28;20469;-74
2022/07/15 09:33:58;;;;;;;3.27;1.60;;;24.00;21.10;;;;;;5076907;28;20441;-76
2022/07/15 09:36:27;;;;;;;2.30;1.60;;;24.10;21.60;;;;;;5076564;28;20520;-78
2022/07/15 09:38:55;;;;;;;3.03;2.00;;;24.20;21.20;;;;;;5075363;28;20958;-75
2022/07/15 09:41:29;;;;;;;4.63;2.17;;;24.00;21.30;;;;;;5054008;28;20461;-74
2022/07/15 09:43:58;;;;;;;3.97;2.07;;;24.20;21.40;;;;;;5055482;28;20935;-75
2022/07/15 09:46:29;;;;;;;9.80;2.50;;;24.20;21.40;;;;;;5076038;28;20468;-73
2022/07/15 09:48:56;;;;;;;4.43;1.90;;;24.30;21.60;;;;;;5074253;28;20814;-74
2022/07/15 09:51:24;;;;;;;4.37;2.20;;;24.50;21.30;;;;;;5074518;28;20430;-77
2022/07/15 09:53:51;;;;;;;5.73;2.07;;;24.70;21.00;;;;;;5075839;28;20457;-76
2022/07/15 09:56:23;;;;;;;2.80;1.83;;;24.80;20.70;;;;;;5076365;28;20467;-75
2022/07/15 09:58:50;;;;;;;2.10;1.90;;;24.90;20.40;;;;;;5074756;28;20459;-77
2022/07/15 10:01:17;;;;;;;2.90;1.80;;;25.00;20.50;;;;;;5074024;28;20422;-74
2022/07/15 10:03:50;;;;;;;4.50;2.17;;;24.90;20.30;;;;;;5073611;28;20967;-75
2022/07/15 10:06:17;;;;;;;3.17;1.80;;;24.60;20.90;;;;;;5072749;28;20771;-76
2022/07/15 10:08:48;;;;;;;3.70;2.00;;;24.70;20.70;;;;;;5071907;28;20954;-75
2022/07/15 10:11:16;;;;;;;8.00;1.53;;;24.80;20.10;;;;;;5072719;28;20970;-75
2022/07/15 10:14:12;;;;;;;2.43;1.47;;;24.80;20.70;;;;;;5073730;28;20483;-74
2022/07/15 10:17:26;;;;;;;1.80;1.70;;;24.90;20.50;;;;;;5073255;28;20423;-73
2022/07/15 10:20:21;;;;;;;5.30;2.10;;;24.80;20.30;;;;;;5072305;28;20653;-75
2022/07/15 10:22:57;;;;;;;3.97;1.80;;;24.80;20.50;;;;;;5030266;28;20428;-75
2022/07/15 10:25:49;;;;;;;2.23;1.67;;;24.70;20.50;;;;;;5072257;28;20507;-76
2022/07/15 10:28:22;;;;;;;1.80;1.63;;;24.80;20.70;;;;;;5072465;28;20428;-75
2022/07/15 10:31:17;;;;;;;2.20;1.80;;;25.10;20.60;;;;;;5071873;28;20558;-75
2022/07/15 10:34:15;;;;;;;3.30;2.00;;;25.10;20.00;;;;;;5052808;28;20484;-73
2022/07/15 10:36:56;;;;;;;2.90;2.20;;;25.00;19.70;;;;;;5055680;28;20477;-76
2022/07/15 10:39:26;;;;;;;2.73;1.90;;;25.00;20.00;;;;;;5073783;28;20455;-76
2022/07/15 10:41:54;;;;;;;3.30;1.60;;;25.10;20.70;;;;;;5073390;28;20445;-74
2022/07/15 10:44:21;;;;;;;4.97;2.10;;;25.20;19.80;;;;;;5072759;28;20478;-74
2022/07/15 10:47:20;;;;;;;5.50;1.93;;;25.10;19.60;;;;;;5073202;28;20560;-73
2022/07/15 10:49:48;;;;;;;5.73;1.60;;;24.90;19.70;;;;;;5074728;28;20469;-78
2022/07/15 10:52:18;;;;;;;3.03;1.90;;;25.00;20.00;;;;;;5085056;28;20430;-75
2022/07/15 10:54:49;;;;;;;5.00;1.80;;;25.00;20.40;;;;;;5094837;28;20541;-74
2022/07/15 10:57:19;;;;;;;9.97;2.23;;;25.00;19.50;;;;;;5080463;28;20468;-75
2022/07/15 10:59:51;;;;;;;3.93;1.93;;;25.10;20.10;;;;;;5079338;28;20452;-75
2022/07/15 11:02:22;;;;;;;5.83;2.47;;;25.20;19.80;;;;;;5082653;28;20427;-76
2022/07/15 11:04:51;;;;;;;3.53;2.00;;;25.30;20.50;;;;;;5072064;28;20468;-75
2022/07/15 11:07:35;;;;;;;2.23;1.90;;;25.20;19.60;;;;;;5092786;28;20523;-75
2022/07/15 11:10:21;;;;;;;6.00;1.87;;;25.30;19.10;;;;;;5084445;28;20536;-75
2022/07/15 11:13:02;;;;;;;5.00;2.13;;;25.10;19.10;;;;;;5082277;28;20448;-76
2022/07/15 11:15:32;;;;;;;2.80;1.70;;;25.00;19.50;;;;;;5088228;28;20646;-76
2022/07/15 11:18:00;;;;;;;4.63;1.90;;;25.00;19.20;;;;;;5111049;28;20405;-78
2022/07/15 11:20:31;;;;;;;2.10;1.73;;;25.10;19.20;;;;;;5095920;28;20414;-74
2022/07/15 11:22:59;;;;;;;3.90;2.20;;;25.10;19.40;;;;;;5090048;28;20463;-76
2022/07/15 11:25:28;;;;;;;2.00;1.90;;;25.20;19.00;;;;;;5086031;28;20526;-75
2022/07/15 11:28:04;;;;;;;8.70;2.47;;;25.30;19.00;;;;;;5075841;28;20456;-76
2022/07/15 11:30:34;;;;;;;3.80;2.07;;;25.30;18.90;;;;;;5080290;28;20482;-74
2022/07/15 11:33:05;;;;;;;4.10;2.13;;;25.20;19.10;;;;;;5074433;28;20440;-75
2022/07/15 11:35:43;;;;;;;4.50;2.33;;;25.20;18.90;;;;;;5069480;28;20452;-73
2022/07/15 11:38:10;;;;;;;3.53;2.40;;;25.20;19.00;;;;;;5067090;28;20976;-75
2022/07/15 11:46:11;;;;;;;3.33;2.03;;;25.10;19.50;;;;;;5087184;28;20531;-75
2022/07/15 11:48:40;;;;;;;3.80;2.33;;;25.10;18.40;;;;;;5076413;28;21022;-75
2022/07/15 11:51:09;;;;;;;2.70;2.50;;;25.10;18.60;;;;;;5079108;28;20547;-75
2022/07/15 11:53:38;;;;;;;4.83;2.47;;;25.10;18.30;;;;;;5079212;28;20547;-75
2022/07/15 11:56:06;;;;;;;3.60;2.50;;;25.00;18.40;;;;;;5078419;28;20456;-75
2022/07/15 11:58:36;;;;;;;4.23;2.13;;;25.10;18.10;;;;;;5080402;28;20444;-74
2022/07/15 12:01:05;;;;;;;3.97;2.23;;;24.90;18.20;;;;;;5085517;28;20897;-75
2022/07/15 12:03:35;;;;;;;2.70;2.00;;;25.20;17.80;;;;;;5085599;28;20457;-76
2022/07/15 12:06:09;;;;;;;3.87;2.07;;;25.30;17.30;;;;;;5077562;28;20429;-77
2022/07/15 12:08:38;;;;;;;6.83;2.30;;;25.30;17.70;;;;;;5057533;28;20457;-76
2022/07/15 12:11:12;;;;;;;2.50;2.07;;;25.50;17.20;;;;;;5057802;28;20422;-76
2022/07/15 12:13:50;;;;;;;2.20;2.00;;;25.50;16.40;;;;;;5079557;28;20488;-76
2022/07/15 12:16:21;;;;;;;3.73;2.07;;;25.50;16.00;;;;;;5085913;28;20458;-74
2022/07/15 12:18:49;;;;;;;3.80;2.50;;;25.50;16.50;;;;;;5083020;28;20940;-75
2022/07/15 12:21:17;;;;;;;10.30;2.07;;;25.50;16.80;;;;;;5086333;28;20517;-77
2022/07/15 12:23:59;;;;;;;3.10;1.90;;;25.50;16.00;;;;;;5084754;28;20589;-77
2022/07/15 12:26:26;;;;;;;4.73;1.97;;;25.50;16.00;;;;;;5082710;28;20454;-75
2022/07/15 12:28:56;;;;;;;5.20;2.30;;;25.70;16.10;;;;;;5075270;28;20416;-74
2022/07/15 12:31:26;;;;;;;2.30;2.10;;;25.60;16.10;;;;;;5074236;28;20467;-75
2022/07/15 12:33:53;;;;;;;3.03;2.00;;;25.80;16.20;;;;;;5073465;28;20642;-77
2022/07/15 12:36:23;;;;;;;4.20;2.50;;;26.10;14.80;;;;;;5074576;28;20558;-76
2022/07/15 12:39:05;;;;;;;4.40;2.00;;;26.20;15.60;;;;;;5073836;28;20842;-76
2022/07/15 12:41:33;;;;;;;3.23;2.07;;;26.10;16.40;;;;;;5074064;28;20911;-75
2022/07/15 12:44:02;;;;;;;3.63;2.30;;;25.90;16.30;;;;;;5073895;28;20454;-75
2022/07/15 12:46:53;;;;;;;2.20;1.80;;;25.70;16.10;;;;;;5074072;28;20437;-75
2022/07/15 12:49:45;;;;;;;3.00;2.20;;;25.80;16.20;;;;;;5073794;28;20555;-75
2022/07/15 12:52:19;;;;;;;3.00;1.70;;;26.00;16.90;;;;;;5073734;28;20547;-76
2022/07/15 12:54:46;;;;;;;2.30;2.10;;;26.00;16.30;;;;;;5073596;28;20444;-75
2022/07/15 12:57:30;;;;;;;2.10;2.00;;;26.30;16.50;;;;;;5073685;28;20449;-76
2022/07/15 12:59:59;;;;;;;5.40;2.20;;;26.20;16.40;;;;;;5073160;28;20803;-76
2022/07/15 13:02:27;;;;;;;5.13;1.90;;;26.30;16.50;;;;;;5073586;28;20853;-73
2022/07/15 13:04:54;;;;;;;2.03;1.93;;;26.40;16.50;;;;;;5074232;28;20450;-75
2022/07/15 13:07:22;;;;;;;2.40;1.67;;;26.30;16.50;;;;;;5074218;28;20442;-75
2022/07/15 13:09:49;;;;;;;5.60;1.90;;;26.10;16.40;;;;;;5073505;28;20534;-75
2022/07/15 13:12:16;;;;;;;4.67;2.23;;;26.10;16.40;;;;;;5074019;28;20491;-75
2022/07/15 13:14:43;;;;;;;3.67;2.13;;;26.10;16.50;;;;;;5073272;28;20815;-76